sensor_id;sensor_type;location;lat;lon;timestamp;pressure;altitude;pressure_sealevel;temperature;humidity
40650;BME280;26342;42.826;23.992;2023-03-25T00:02:24;94971.53;;;7.71;100.00
40650;BME280;26342;42.826;23.992;2023-03-25T00:04:52;94970.44;;;7.67;100.00
40650;BME280;26342;42.826;23.992;2023-03-25T00:07:21;94961.34;;;7.63;100.00
40650;BME280;26342;42.826;23.992;2023-03-25T00:09:47;94957.97;;;7.68;100.00
40650;BME280;26342;42.826;23.992;2023-03-25T00:12:14;94959.38;;;7.53;100.00
40650;BME280;26342;42.826;23.992;2023-03-25T00:14:41;94951.69;;;7.52;100.00
40650;BME280;26342;42.826;23.992;2023-03-25T00:17:07;94951.53;;;7.42;100.00
40650;BME280;26342;42.826;23.992;2023-03-25T00:19:34;94945.94;;;7.38;100.00
40650;BME280;26342;42.826;23.992;2023-03-25T00:22:00;94947.78;;;7.60;100.00
40650;BME280;26342;42.826;23.992;2023-03-25T00:24:25;94942.47;;;7.60;100.00
40650;BME280;26342;42.826;23.992;2023-03-25T00:26:51;94944.44;;;7.69;100.00
40650;BME280;26342;42.826;23.992;2023-03-25T00:29:19;94930.97;;;7.76;100.00
40650;BME280;26342;42.826;23.992;2023-03-25T00:31:45;94950.97;;;7.83;100.00
40650;BME280;26342;42.826;23.992;2023-03-25T00:34:11;94946.66;;;7.77;100.00
40650;BME280;26342;42.826;23.992;2023-03-25T00:36:40;94947.91;;;7.70;100.00
40650;BME280;26342;42.826;23.992;2023-03-25T00:39:07;94939.56;;;7.61;100.00
40650;BME280;26342;42.826;23.992;2023-03-25T00:41:34;94937.63;;;7.56;100.00
40650;BME280;26342;42.826;23.992;2023-03-25T00:44:02;94937.53;;;7.46;100.00
40650;BME280;26342;42.826;23.992;2023-03-25T00:46:30;94939.31;;;7.41;100.00
40650;BME280;26342;42.826;23.992;2023-03-25T00:48:56;94920.91;;;7.34;100.00
40650;BME280;26342;42.826;23.992;2023-03-25T00:51:23;94930.63;;;7.45;100.00
40650;BME280;26342;42.826;23.992;2023-03-25T00:53:54;94925.50;;;7.39;100.00
40650;BME280;26342;42.826;23.992;2023-03-25T00:56:22;94919.81;;;7.30;100.00
40650;BME280;26342;42.826;23.992;2023-03-25T00:58:48;94924.00;;;7.26;100.00
40650;BME280;26342;42.826;23.992;2023-03-25T01:01:16;94928.03;;;7.28;100.00
40650;BME280;26342;42.826;23.992;2023-03-25T01:03:43;94920.78;;;7.24;100.00
40650;BME280;26342;42.826;23.992;2023-03-25T01:08:36;94911.16;;;7.18;100.00
40650;BME280;26342;42.826;23.992;2023-03-25T01:11:01;94907.34;;;7.09;100.00
40650;BME280;26342;42.826;23.992;2023-03-25T01:13:26;94904.69;;;7.09;100.00
40650;BME280;26342;42.826;23.992;2023-03-25T01:15:52;94902.03;;;7.09;100.00
40650;BME280;26342;42.826;23.992;2023-03-25T01:18:18;94887.75;;;6.93;100.00
40650;BME280;26342;42.826;23.992;2023-03-25T01:20:43;94892.66;;;7.01;100.00
40650;BME280;26342;42.826;23.992;2023-03-25T01:23:09;94898.53;;;7.03;100.00
40650;BME280;26342;42.826;23.992;2023-03-25T01:25:35;94906.34;;;6.93;100.00
40650;BME280;26342;42.826;23.992;2023-03-25T01:28:02;94906.59;;;6.91;100.00
40650;BME280;26342;42.826;23.992;2023-03-25T01:30:27;94901.53;;;6.90;100.00
40650;BME280;26342;42.826;23.992;2023-03-25T01:32:53;94878.63;;;6.84;100.00
40650;BME280;26342;42.826;23.992;2023-03-25T01:35:18;94878.38;;;6.85;100.00
40650;BME280;26342;42.826;23.992;2023-03-25T01:37:43;94877.03;;;6.83;100.00
40650;BME280;26342;42.826;23.992;2023-03-25T01:40:17;94872.69;;;6.77;100.00
40650;BME280;26342;42.826;23.992;2023-03-25T01:42:43;94867.66;;;6.75;100.00
40650;BME280;26342;42.826;23.992;2023-03-25T01:45:16;94864.13;;;6.69;100.00
40650;BME280;26342;42.826;23.992;2023-03-25T01:47:44;94867.91;;;6.74;100.00
40650;BME280;26342;42.826;23.992;2023-03-25T01:50:11;94862.22;;;6.65;100.00
40650;BME280;26342;42.826;23.992;2023-03-25T01:52:43;94851.44;;;6.55;100.00
40650;BME280;26342;42.826;23.992;2023-03-25T01:55:09;94862.25;;;6.70;100.00
40650;BME280;26342;42.826;23.992;2023-03-25T01:57:39;94853.69;;;6.63;100.00
40650;BME280;26342;42.826;23.992;2023-03-25T02:00:08;94845.69;;;6.58;100.00
40650;BME280;26342;42.826;23.992;2023-03-25T02:02:34;94858.44;;;6.61;100.00
40650;BME280;26342;42.826;23.992;2023-03-25T02:05:06;94853.38;;;6.59;100.00
40650;BME280;26342;42.826;23.992;2023-03-25T02:07:37;94847.53;;;6.57;100.00
40650;BME280;26342;42.826;23.992;2023-03-25T02:10:06;94851.53;;;6.60;100.00
40650;BME280;26342;42.826;23.992;2023-03-25T02:12:32;94835.97;;;6.47;100.00
40650;BME280;26342;42.826;23.992;2023-03-25T02:14:58;94845.59;;;6.53;100.00
40650;BME280;26342;42.826;23.992;2023-03-25T02:28:57;94854.22;;;6.43;100.00
40650;BME280;26342;42.826;23.992;2023-03-25T02:37:12;94842.41;;;6.34;100.00
40650;BME280;26342;42.826;23.992;2023-03-25T02:45:19;94845.72;;;6.41;100.00
40650;BME280;26342;42.826;23.992;2023-03-25T02:47:50;94840.81;;;6.33;100.00
40650;BME280;26342;42.826;23.992;2023-03-25T02:50:23;94841.53;;;6.28;100.00
40650;BME280;26342;42.826;23.992;2023-03-25T02:52:54;94836.16;;;6.23;100.00
40650;BME280;26342;42.826;23.992;2023-03-25T02:55:22;94835.84;;;6.20;100.00
40650;BME280;26342;42.826;23.992;2023-03-25T02:57:51;94834.50;;;6.17;100.00
40650;BME280;26342;42.826;23.992;2023-03-25T03:00:23;94824.31;;;6.09;100.00
40650;BME280;26342;42.826;23.992;2023-03-25T03:02:54;94823.72;;;6.07;100.00
40650;BME280;26342;42.826;23.992;2023-03-25T03:19:43;94833.13;;;5.98;100.00
40650;BME280;26342;42.826;23.992;2023-03-25T03:24:51;94824.75;;;5.89;100.00
40650;BME280;26342;42.826;23.992;2023-03-25T03:30:15;94826.28;;;5.85;100.00
40650;BME280;26342;42.826;23.992;2023-03-25T03:35:25;94823.19;;;5.76;100.00
40650;BME280;26342;42.826;23.992;2023-03-25T03:37:58;94826.91;;;5.75;100.00
40650;BME280;26342;42.826;23.992;2023-03-25T03:40:27;94830.03;;;5.72;100.00
40650;BME280;26342;42.826;23.992;2023-03-25T03:42:57;94826.91;;;5.75;100.00
40650;BME280;26342;42.826;23.992;2023-03-25T03:45:33;94835.31;;;5.72;100.00
40650;BME280;26342;42.826;23.992;2023-03-25T03:48:05;94828.34;;;5.66;100.00
40650;BME280;26342;42.826;23.992;2023-03-25T03:50:38;94839.72;;;5.67;100.00
40650;BME280;26342;42.826;23.992;2023-03-25T03:53:36;94838.47;;;5.69;100.00
40650;BME280;26342;42.826;23.992;2023-03-25T03:56:11;94849.50;;;5.66;100.00
40650;BME280;26342;42.826;23.992;2023-03-25T03:58:40;94844.69;;;5.63;100.00
40650;BME280;26342;42.826;23.992;2023-03-25T04:01:14;94847.66;;;5.67;100.00
40650;BME280;26342;42.826;23.992;2023-03-25T04:03:49;94844.78;;;5.68;100.00
40650;BME280;26342;42.826;23.992;2023-03-25T04:06:26;94839.97;;;5.65;100.00
40650;BME280;26342;42.826;23.992;2023-03-25T04:09:02;94841.50;;;5.61;100.00
40650;BME280;26342;42.826;23.992;2023-03-25T04:11:43;94834.97;;;5.52;100.00
40650;BME280;26342;42.826;23.992;2023-03-25T04:14:12;94843.81;;;5.57;100.00
40650;BME280;26342;42.826;23.992;2023-03-25T04:16:38;94832.25;;;5.47;100.00
40650;BME280;26342;42.826;23.992;2023-03-25T04:19:04;94842.03;;;5.46;100.00
40650;BME280;26342;42.826;23.992;2023-03-25T04:21:31;94845.47;;;5.47;100.00
40650;BME280;26342;42.826;23.992;2023-03-25T04:23:56;94861.22;;;5.53;100.00
40650;BME280;26342;42.826;23.992;2023-03-25T04:26:26;94850.28;;;5.50;100.00
40650;BME280;26342;42.826;23.992;2023-03-25T04:28:55;94851.38;;;5.37;100.00
40650;BME280;26342;42.826;23.992;2023-03-25T04:31:23;94859.16;;;5.44;100.00
40650;BME280;26342;42.826;23.992;2023-03-25T04:33:50;94863.13;;;5.58;100.00
40650;BME280;26342;42.826;23.992;2023-03-25T04:36:16;94858.22;;;5.50;100.00
40650;BME280;26342;42.826;23.992;2023-03-25T04:38:42;94866.78;;;5.40;100.00
40650;BME280;26342;42.826;23.992;2023-03-25T04:41:11;94872.19;;;5.45;100.00
40650;BME280;26342;42.826;23.992;2023-03-25T04:43:37;94878.84;;;5.48;100.00
40650;BME280;26342;42.826;23.992;2023-03-25T04:46:06;94872.50;;;5.49;100.00
40650;BME280;26342;42.826;23.992;2023-03-25T04:48:34;94881.00;;;5.51;100.00
40650;BME280;26342;42.826;23.992;2023-03-25T04:51:06;94881.00;;;5.51;100.00
40650;BME280;26342;42.826;23.992;2023-03-25T04:53:35;94874.34;;;5.48;100.00
40650;BME280;26342;42.826;23.992;2023-03-25T04:56:01;94876.84;;;5.55;100.00
40650;BME280;26342;42.826;23.992;2023-03-25T04:58:26;94880.75;;;5.52;100.00
40650;BME280;26342;42.826;23.992;2023-03-25T05:00:53;94880.06;;;5.57;100.00
40650;BME280;26342;42.826;23.992;2023-03-25T05:03:19;94884.06;;;5.59;100.00
40650;BME280;26342;42.826;23.992;2023-03-25T05:05:49;94881.66;;;5.58;100.00
40650;BME280;26342;42.826;23.992;2023-03-25T05:08:15;94869.22;;;5.58;100.00
40650;BME280;26342;42.826;23.992;2023-03-25T05:10:41;94881.03;;;5.68;100.00
40650;BME280;26342;42.826;23.992;2023-03-25T05:13:07;94890.81;;;5.67;100.00
40650;BME280;26342;42.826;23.992;2023-03-25T05:15:34;94879.97;;;5.69;100.00
40650;BME280;26342;42.826;23.992;2023-03-25T05:18:08;94881.03;;;5.68;100.00
40650;BME280;26342;42.826;23.992;2023-03-25T05:20:36;94887.31;;;5.78;100.00
40650;BME280;26342;42.826;23.992;2023-03-25T05:23:05;94887.19;;;5.85;100.00
40650;BME280;26342;42.826;23.992;2023-03-25T05:25:30;94890.72;;;5.91;100.00
40650;BME280;26342;42.826;23.992;2023-03-25T05:27:59;94885.28;;;5.97;100.00
40650;BME280;26342;42.826;23.992;2023-03-25T05:30:30;94892.13;;;6.10;100.00
40650;BME280;26342;42.826;23.992;2023-03-25T05:32:57;94891.72;;;6.18;100.00
40650;BME280;26342;42.826;23.992;2023-03-25T05:35:24;94875.88;;;6.23;100.00
40650;BME280;26342;42.826;23.992;2023-03-25T05:37:51;94886.88;;;6.32;100.00
40650;BME280;26342;42.826;23.992;2023-03-25T05:40:17;94880.22;;;6.46;100.00
40650;BME280;26342;42.826;23.992;2023-03-25T05:42:42;94873.94;;;6.52;100.00
40650;BME280;26342;42.826;23.992;2023-03-25T05:45:11;94875.47;;;6.65;100.00
40650;BME280;26342;42.826;23.992;2023-03-25T05:47:36;94882.59;;;6.81;100.00
40650;BME280;26342;42.826;23.992;2023-03-25T05:50:02;94878.28;;;6.97;100.00
40650;BME280;26342;42.826;23.992;2023-03-25T05:52:27;94875.56;;;7.14;100.00
40650;BME280;26342;42.826;23.992;2023-03-25T05:54:52;94876.56;;;7.30;100.00
40650;BME280;26342;42.826;23.992;2023-03-25T05:57:19;94876.72;;;7.45;100.00
40650;BME280;26342;42.826;23.992;2023-03-25T05:59:45;94876.25;;;7.75;100.00
40650;BME280;26342;42.826;23.992;2023-03-25T06:02:15;94882.34;;;8.02;100.00
40650;BME280;26342;42.826;23.992;2023-03-25T06:04:41;94872.22;;;8.31;100.00
40650;BME280;26342;42.826;23.992;2023-03-25T06:07:10;94876.63;;;8.53;100.00
40650;BME280;26342;42.826;23.992;2023-03-25T06:09:44;94875.72;;;8.69;100.00
40650;BME280;26342;42.826;23.992;2023-03-25T06:12:18;94875.06;;;8.99;100.00
40650;BME280;26342;42.826;23.992;2023-03-25T06:14:44;94871.13;;;9.12;100.00
40650;BME280;26342;42.826;23.992;2023-03-25T06:17:11;94866.72;;;9.33;100.00
40650;BME280;26342;42.826;23.992;2023-03-25T06:19:37;94862.00;;;9.65;100.00
40650;BME280;26342;42.826;23.992;2023-03-25T06:22:06;94865.53;;;9.91;100.00
40650;BME280;26342;42.826;23.992;2023-03-25T06:24:34;94861.00;;;10.17;100.00
40650;BME280;26342;42.826;23.992;2023-03-25T06:27:00;94868.78;;;10.29;100.00
40650;BME280;26342;42.826;23.992;2023-03-25T06:29:25;94869.03;;;10.48;100.00
40650;BME280;26342;42.826;23.992;2023-03-25T06:31:51;94870.34;;;10.71;100.00
40650;BME280;26342;42.826;23.992;2023-03-25T06:34:16;94870.00;;;10.98;100.00
40650;BME280;26342;42.826;23.992;2023-03-25T06:36:41;94872.06;;;11.21;100.00
40650;BME280;26342;42.826;23.992;2023-03-25T06:39:07;94866.16;;;11.34;100.00
40650;BME280;26342;42.826;23.992;2023-03-25T06:41:33;94864.66;;;11.67;100.00
40650;BME280;26342;42.826;23.992;2023-03-25T06:44:00;94862.91;;;12.02;100.00
40650;BME280;26342;42.826;23.992;2023-03-25T06:46:26;94862.69;;;12.33;100.00
40650;BME280;26342;42.826;23.992;2023-03-25T06:48:51;94868.84;;;12.62;100.00
40650;BME280;26342;42.826;23.992;2023-03-25T06:51:16;94861.94;;;12.85;100.00
40650;BME280;26342;42.826;23.992;2023-03-25T06:53:42;94857.97;;;13.06;100.00
40650;BME280;26342;42.826;23.992;2023-03-25T06:56:08;94869.09;;;13.43;100.00
40650;BME280;26342;42.826;23.992;2023-03-25T06:58:33;94870.84;;;13.76;100.00
40650;BME280;26342;42.826;23.992;2023-03-25T07:01:03;94864.75;;;14.08;100.00
40650;BME280;26342;42.826;23.992;2023-03-25T07:03:31;94871.56;;;14.38;100.00
40650;BME280;26342;42.826;23.992;2023-03-25T07:05:57;94877.75;;;14.71;100.00
40650;BME280;26342;42.826;23.992;2023-03-25T07:08:22;94875.91;;;14.99;98.99
40650;BME280;26342;42.826;23.992;2023-03-25T07:10:48;94869.09;;;15.21;98.90
40650;BME280;26342;42.826;23.992;2023-03-25T07:13:13;94874.75;;;15.47;93.13
40650;BME280;26342;42.826;23.992;2023-03-25T07:15:39;94875.38;;;15.71;92.11
40650;BME280;26342;42.826;23.992;2023-03-25T07:18:04;94883.19;;;15.95;89.84
40650;BME280;26342;42.826;23.992;2023-03-25T07:20:30;94880.25;;;16.19;85.90
40650;BME280;26342;42.826;23.992;2023-03-25T07:22:55;94873.31;;;16.40;91.59
40650;BME280;26342;42.826;23.992;2023-03-25T07:25:21;94876.81;;;16.63;88.85
40650;BME280;26342;42.826;23.992;2023-03-25T07:27:47;94873.50;;;16.89;86.22
40650;BME280;26342;42.826;23.992;2023-03-25T07:30:12;94883.66;;;17.14;81.21
40650;BME280;26342;42.826;23.992;2023-03-25T07:32:38;94873.75;;;17.41;77.96
40650;BME280;26342;42.826;23.992;2023-03-25T07:35:04;94864.28;;;17.61;71.59
40650;BME280;26342;42.826;23.992;2023-03-25T07:37:29;94866.13;;;17.82;63.46
40650;BME280;26342;42.826;23.992;2023-03-25T07:39:55;94858.88;;;18.09;65.65
40650;BME280;26342;42.826;23.992;2023-03-25T07:42:20;94856.97;;;18.44;60.56
40650;BME280;26342;42.826;23.992;2023-03-25T07:44:46;94853.00;;;18.67;57.97
40650;BME280;26342;42.826;23.992;2023-03-25T07:47:11;94849.81;;;18.83;55.34
40650;BME280;26342;42.826;23.992;2023-03-25T07:49:36;94854.88;;;18.93;57.68
40650;BME280;26342;42.826;23.992;2023-03-25T07:52:05;94851.47;;;19.13;50.24
40650;BME280;26342;42.826;23.992;2023-03-25T07:54:31;94854.25;;;19.34;50.66
40650;BME280;26342;42.826;23.992;2023-03-25T07:56:56;94856.09;;;19.51;48.69
40650;BME280;26342;42.826;23.992;2023-03-25T07:59:21;94859.34;;;19.74;53.47
40650;BME280;26342;42.826;23.992;2023-03-25T08:01:47;94859.06;;;19.75;48.04
40650;BME280;26342;42.826;23.992;2023-03-25T08:04:12;94853.38;;;19.89;46.60
40650;BME280;26342;42.826;23.992;2023-03-25T08:06:39;94853.00;;;20.20;48.95
40650;BME280;26342;42.826;23.992;2023-03-25T08:09:04;94851.25;;;20.45;43.38
40650;BME280;26342;42.826;23.992;2023-03-25T08:11:31;94852.44;;;20.56;47.65
40650;BME280;26342;42.826;23.992;2023-03-25T08:13:56;94847.72;;;20.99;45.73
40650;BME280;26342;42.826;23.992;2023-03-25T08:16:22;94847.25;;;21.30;40.83
40650;BME280;26342;42.826;23.992;2023-03-25T08:18:47;94846.81;;;21.52;39.09
40650;BME280;26342;42.826;23.992;2023-03-25T08:21:18;94839.81;;;21.76;39.58
40650;BME280;26342;42.826;23.992;2023-03-25T08:23:53;94835.97;;;21.52;35.57
40650;BME280;26342;42.826;23.992;2023-03-25T08:26:23;94838.84;;;21.23;36.96
40650;BME280;26342;42.826;23.992;2023-03-25T08:28:50;94844.50;;;21.17;38.19
40650;BME280;26342;42.826;23.992;2023-03-25T08:31:15;94843.69;;;21.17;37.63
40650;BME280;26342;42.826;23.992;2023-03-25T08:33:41;94840.16;;;21.04;38.06
40650;BME280;26342;42.826;23.992;2023-03-25T08:36:09;94844.34;;;21.02;39.38
40650;BME280;26342;42.826;23.992;2023-03-25T08:38:38;94840.25;;;21.29;37.82
40650;BME280;26342;42.826;23.992;2023-03-25T08:41:04;94838.78;;;21.56;38.78
40650;BME280;26342;42.826;23.992;2023-03-25T08:43:29;94850.66;;;21.63;35.90
40650;BME280;26342;42.826;23.992;2023-03-25T08:45:54;94845.25;;;21.51;35.91
40650;BME280;26342;42.826;23.992;2023-03-25T08:48:20;94834.25;;;21.72;37.52
40650;BME280;26342;42.826;23.992;2023-03-25T08:50:46;94830.28;;;21.94;35.86
40650;BME280;26342;42.826;23.992;2023-03-25T08:53:12;94807.19;;;22.00;37.86
40650;BME280;26342;42.826;23.992;2023-03-25T08:55:37;94831.13;;;22.35;36.09
40650;BME280;26342;42.826;23.992;2023-03-25T08:58:03;94830.25;;;22.58;35.34
40650;BME280;26342;42.826;23.992;2023-03-25T09:00:30;94831.28;;;22.82;35.31
40650;BME280;26342;42.826;23.992;2023-03-25T09:02:56;94839.22;;;23.15;35.11
40650;BME280;26342;42.826;23.992;2023-03-25T09:05:23;94823.16;;;23.42;36.74
40650;BME280;26342;42.826;23.992;2023-03-25T09:07:49;94813.28;;;23.53;34.46
40650;BME280;26342;42.826;23.992;2023-03-25T09:10:15;94821.09;;;24.02;34.54
40650;BME280;26342;42.826;23.992;2023-03-25T09:12:40;94827.97;;;24.15;33.86
40650;BME280;26342;42.826;23.992;2023-03-25T09:15:07;94811.25;;;24.16;32.65
40650;BME280;26342;42.826;23.992;2023-03-25T09:17:32;94823.44;;;24.38;32.67
40650;BME280;26342;42.826;23.992;2023-03-25T09:19:58;94812.50;;;24.19;31.51
40650;BME280;26342;42.826;23.992;2023-03-25T09:22:23;94805.31;;;24.11;32.56
40650;BME280;26342;42.826;23.992;2023-03-25T09:24:49;94803.16;;;24.36;34.08
40650;BME280;26342;42.826;23.992;2023-03-25T09:27:14;94806.13;;;24.31;32.22
40650;BME280;26342;42.826;23.992;2023-03-25T09:29:40;94808.75;;;24.08;31.54
40650;BME280;26342;42.826;23.992;2023-03-25T09:32:05;94811.34;;;23.85;33.32
40650;BME280;26342;42.826;23.992;2023-03-25T09:34:30;94811.88;;;23.59;32.96
40650;BME280;26342;42.826;23.992;2023-03-25T09:36:56;94799.25;;;23.19;32.58
40650;BME280;26342;42.826;23.992;2023-03-25T09:39:22;94803.06;;;22.87;34.28
40650;BME280;26342;42.826;23.992;2023-03-25T09:42:00;94807.44;;;22.75;34.11
40650;BME280;26342;42.826;23.992;2023-03-25T09:44:34;94788.53;;;22.39;33.38
40650;BME280;26342;42.826;23.992;2023-03-25T09:47:02;94790.59;;;22.57;33.09
40650;BME280;26342;42.826;23.992;2023-03-25T09:49:38;94798.81;;;22.73;34.64
40650;BME280;26342;42.826;23.992;2023-03-25T09:52:13;94800.72;;;22.73;34.31
40650;BME280;26342;42.826;23.992;2023-03-25T09:54:48;94798.88;;;22.61;34.15
40650;BME280;26342;42.826;23.992;2023-03-25T09:57:21;94791.69;;;22.69;32.82
40650;BME280;26342;42.826;23.992;2023-03-25T09:59:49;94786.53;;;22.79;33.46
40650;BME280;26342;42.826;23.992;2023-03-25T10:02:37;94784.72;;;22.83;33.06
40650;BME280;26342;42.826;23.992;2023-03-25T10:10:38;94773.72;;;23.08;33.67
40650;BME280;26342;42.826;23.992;2023-03-25T10:16:00;94768.00;;;23.13;33.25
40650;BME280;26342;42.826;23.992;2023-03-25T10:21:16;94770.59;;;23.57;31.45
40650;BME280;26342;42.826;23.992;2023-03-25T10:24:11;94759.13;;;23.48;32.66
40650;BME280;26342;42.826;23.992;2023-03-25T10:26:47;94754.66;;;23.24;32.54
40650;BME280;26342;42.826;23.992;2023-03-25T10:29:21;94759.13;;;23.32;31.92
40650;BME280;26342;42.826;23.992;2023-03-25T10:31:53;94750.50;;;23.46;32.89
40650;BME280;26342;42.826;23.992;2023-03-25T10:34:32;94749.72;;;23.61;31.86
40650;BME280;26342;42.826;23.992;2023-03-25T10:37:01;94729.84;;;23.60;31.09
40650;BME280;26342;42.826;23.992;2023-03-25T10:39:31;94731.44;;;23.61;30.07
40650;BME280;26342;42.826;23.992;2023-03-25T10:42:18;94746.00;;;23.69;30.86
40650;BME280;26342;42.826;23.992;2023-03-25T10:44:45;94734.78;;;24.09;32.48
40650;BME280;26342;42.826;23.992;2023-03-25T10:47:25;94733.75;;;24.53;32.87
40650;BME280;26342;42.826;23.992;2023-03-25T10:49:53;94731.22;;;24.86;31.20
40650;BME280;26342;42.826;23.992;2023-03-25T10:52:20;94725.66;;;24.79;29.36
40650;BME280;26342;42.826;23.992;2023-03-25T10:54:51;94725.88;;;25.13;30.58
40650;BME280;26342;42.826;23.992;2023-03-25T10:57:23;94720.56;;;25.00;29.09
40650;BME280;26342;42.826;23.992;2023-03-25T11:02:29;94696.94;;;24.43;30.02
40650;BME280;26342;42.826;23.992;2023-03-25T11:05:01;94708.69;;;24.47;30.95
40650;BME280;26342;42.826;23.992;2023-03-25T11:07:31;94702.81;;;24.26;32.84
40650;BME280;26342;42.826;23.992;2023-03-25T11:10:23;94697.72;;;24.24;31.72
40650;BME280;26342;42.826;23.992;2023-03-25T11:12:51;94698.50;;;24.24;31.56
40650;BME280;26342;42.826;23.992;2023-03-25T11:15:20;94697.09;;;24.50;31.76
40650;BME280;26342;42.826;23.992;2023-03-25T11:17:54;94688.00;;;24.65;30.08
40650;BME280;26342;42.826;23.992;2023-03-25T11:20:25;94684.91;;;24.67;37.06
40650;BME280;26342;42.826;23.992;2023-03-25T11:22:53;94681.81;;;24.68;30.22
40650;BME280;26342;42.826;23.992;2023-03-25T11:25:24;94685.75;;;24.71;30.42
40650;BME280;26342;42.826;23.992;2023-03-25T13:03:41;94620.72;;;20.62;39.72
40650;BME280;26342;42.826;23.992;2023-03-25T13:09:14;94633.78;;;20.03;40.99
40650;BME280;26342;42.826;23.992;2023-03-25T13:28:45;94628.16;;;20.20;40.35
40650;BME280;26342;42.826;23.992;2023-03-25T13:31:15;94628.72;;;20.14;40.64
40650;BME280;26342;42.826;23.992;2023-03-25T13:33:49;94636.03;;;20.01;41.07
40650;BME280;26342;42.826;23.992;2023-03-25T13:36:43;94636.56;;;19.94;41.80
40650;BME280;26342;42.826;23.992;2023-03-25T13:39:16;94637.97;;;19.79;40.93
40650;BME280;26342;42.826;23.992;2023-03-25T13:41:46;94652.38;;;19.71;41.86
40650;BME280;26342;42.826;23.992;2023-03-25T13:44:33;94646.59;;;19.61;41.48
40650;BME280;26342;42.826;23.992;2023-03-25T13:47:36;94650.13;;;19.52;42.46
40650;BME280;26342;42.826;23.992;2023-03-25T13:49:59;94650.91;;;19.53;42.75
40650;BME280;26342;42.826;23.992;2023-03-25T13:52:33;94646.72;;;19.43;42.38
40650;BME280;26342;42.826;23.992;2023-03-25T13:55:09;94648.88;;;19.29;42.08
40650;BME280;26342;42.826;23.992;2023-03-25T14:00:41;94666.69;;;19.01;47.32
40650;BME280;26342;42.826;23.992;2023-03-25T14:14:17;94619.66;;;18.25;49.46
40650;BME280;26342;42.826;23.992;2023-03-25T14:16:56;94607.16;;;18.12;49.53
40650;BME280;26342;42.826;23.992;2023-03-25T14:19:29;94610.19;;;18.10;50.73
40650;BME280;26342;42.826;23.992;2023-03-25T14:21:56;94605.69;;;18.14;50.59
40650;BME280;26342;42.826;23.992;2023-03-25T14:24:31;94606.97;;;18.17;50.36
40650;BME280;26342;42.826;23.992;2023-03-25T14:27:17;94599.34;;;18.19;50.32
40650;BME280;26342;42.826;23.992;2023-03-25T14:32:41;94603.88;;;18.36;51.87
40650;BME280;26342;42.826;23.992;2023-03-25T14:37:55;94597.72;;;18.56;48.40
40650;BME280;26342;42.826;23.992;2023-03-25T14:48:41;94623.13;;;18.73;50.11
40650;BME280;26342;42.826;23.992;2023-03-25T14:57:21;94632.06;;;18.18;48.70
40650;BME280;26342;42.826;23.992;2023-03-25T14:59:59;94635.25;;;18.11;49.24
40650;BME280;26342;42.826;23.992;2023-03-25T15:02:34;94643.69;;;18.01;49.26
40650;BME280;26342;42.826;23.992;2023-03-25T15:07:59;94654.69;;;17.87;49.58
40650;BME280;26342;42.826;23.992;2023-03-25T15:10:44;94652.78;;;17.79;51.15
40650;BME280;26342;42.826;23.992;2023-03-25T15:13:25;94653.13;;;17.77;51.10
40650;BME280;26342;42.826;23.992;2023-03-25T15:21:10;94659.72;;;17.45;51.51
40650;BME280;26342;42.826;23.992;2023-03-25T15:26:12;94660.56;;;17.46;52.07
40650;BME280;26342;42.826;23.992;2023-03-25T15:31:38;94667.53;;;17.38;53.14
40650;BME280;26342;42.826;23.992;2023-03-25T15:34:36;94672.28;;;17.24;53.33
40650;BME280;26342;42.826;23.992;2023-03-25T15:40:07;94680.03;;;17.17;53.58
40650;BME280;26342;42.826;23.992;2023-03-25T15:56:51;94576.41;;;16.17;90.18
40650;BME280;26342;42.826;23.992;2023-03-25T15:59:47;94591.28;;;16.15;89.99
40650;BME280;26342;42.826;23.992;2023-03-25T16:02:24;94601.25;;;16.14;98.67
40650;BME280;26342;42.826;23.992;2023-03-25T16:04:52;94595.53;;;16.07;100.00
40650;BME280;26342;42.826;23.992;2023-03-25T16:07:21;94604.31;;;15.90;97.29
40650;BME280;26342;42.826;23.992;2023-03-25T16:09:49;94599.06;;;15.63;96.57
40650;BME280;26342;42.826;23.992;2023-03-25T16:12:24;94613.00;;;15.43;95.20
40650;BME280;26342;42.826;23.992;2023-03-25T16:14:51;94611.13;;;15.29;96.31
40650;BME280;26342;42.826;23.992;2023-03-25T16:17:26;94600.94;;;15.18;96.01
40650;BME280;26342;42.826;23.992;2023-03-25T16:19:56;94599.19;;;14.99;98.82
40650;BME280;26342;42.826;23.992;2023-03-25T16:22:28;94605.50;;;14.95;100.00
40650;BME280;26342;42.826;23.992;2023-03-25T16:24:56;94600.13;;;14.81;99.72
40650;BME280;26342;42.826;23.992;2023-03-25T16:27:25;94595.06;;;14.79;100.00
40650;BME280;26342;42.826;23.992;2023-03-25T16:29:52;94597.53;;;14.90;100.00
40650;BME280;26342;42.826;23.992;2023-03-25T16:32:22;94590.81;;;14.78;100.00
40650;BME280;26342;42.826;23.992;2023-03-25T16:34:48;94599.84;;;14.83;100.00
40650;BME280;26342;42.826;23.992;2023-03-25T16:37:14;94593.09;;;14.71;100.00
40650;BME280;26342;42.826;23.992;2023-03-25T16:39:40;94595.31;;;14.69;100.00
40650;BME280;26342;42.826;23.992;2023-03-25T16:42:18;94582.84;;;14.73;100.00
40650;BME280;26342;42.826;23.992;2023-03-25T16:44:44;94593.97;;;14.80;100.00
40650;BME280;26342;42.826;23.992;2023-03-25T16:47:11;94582.94;;;14.82;100.00
40650;BME280;26342;42.826;23.992;2023-03-25T16:49:37;94586.31;;;14.74;100.00
40650;BME280;26342;42.826;23.992;2023-03-25T16:52:09;94595.09;;;14.52;100.00
40650;BME280;26342;42.826;23.992;2023-03-25T16:55:12;94581.19;;;14.22;100.00
40650;BME280;26342;42.826;23.992;2023-03-25T16:57:39;94587.34;;;14.23;100.00
40650;BME280;26342;42.826;23.992;2023-03-25T17:00:20;94571.84;;;14.06;100.00
40650;BME280;26342;42.826;23.992;2023-03-25T17:02:47;94576.09;;;14.21;100.00